createdAt,value
2022-08-28T00:00:12.733Z,51.323429
2022-08-28T00:01:12.717Z,51.323418
2022-08-28T00:02:12.697Z,51.323437
2022-08-28T00:03:12.794Z,51.323444
2022-08-28T00:04:12.648Z,51.323425
2022-08-28T00:05:12.629Z,51.323418
2022-08-28T00:06:12.605Z,51.323433
2022-08-28T00:07:12.583Z,51.323433
2022-08-28T00:08:12.752Z,51.323437
2022-08-28T00:09:12.540Z,51.323444
2022-08-28T00:10:12.520Z,51.323421
2022-08-28T00:11:12.493Z,51.323425
2022-08-28T00:12:13.430Z,51.323425
2022-08-28T00:13:12.453Z,51.323429
2022-08-28T00:14:12.433Z,51.323452
2022-08-28T00:15:12.942Z,51.323460
2022-08-28T00:16:12.455Z,51.323444
2022-08-28T00:17:12.367Z,51.323448
2022-08-28T00:18:12.480Z,51.323437
2022-08-28T00:19:12.320Z,51.323463
2022-08-28T00:20:12.306Z,51.323456
2022-08-28T00:21:12.280Z,51.323425
2022-08-28T00:22:12.257Z,51.323448
2022-08-28T00:23:12.240Z,51.323456
2022-08-28T00:24:12.210Z,51.323460
2022-08-28T00:25:12.188Z,51.323425
2022-08-28T00:26:12.171Z,51.323429
2022-08-28T00:27:12.146Z,51.323433
2022-08-28T00:28:20.987Z,51.323444
2022-08-28T00:29:13.106Z,51.323448
2022-08-28T00:30:12.083Z,51.323425
2022-08-28T00:31:12.108Z,51.323425
2022-08-28T00:32:12.044Z,51.323429
2022-08-28T00:33:12.025Z,51.323460
2022-08-28T00:34:11.999Z,51.323456
2022-08-28T00:35:11.973Z,51.323444
2022-08-28T00:36:11.954Z,51.323433
2022-08-28T00:37:11.929Z,51.323467
2022-08-28T00:38:12.031Z,51.323475
2022-08-28T00:39:11.887Z,51.323467
2022-08-28T00:40:11.906Z,51.323456
2022-08-28T00:41:11.841Z,51.323486
2022-08-28T00:42:11.819Z,51.323498
2022-08-28T00:43:11.794Z,51.323483
2022-08-28T00:44:11.775Z,51.323463
2022-08-28T00:45:11.752Z,51.323441
2022-08-28T00:46:11.774Z,51.323448
2022-08-28T00:47:11.711Z,51.323437
2022-08-28T00:48:11.786Z,51.323425
2022-08-28T00:49:11.662Z,51.323433
2022-08-28T00:50:11.644Z,51.323425
2022-08-28T00:51:11.605Z,51.323425
2022-08-28T00:52:12.694Z,51.323433
2022-08-28T00:53:11.571Z,51.323425
2022-08-28T00:54:11.545Z,51.323441
2022-08-28T00:55:11.533Z,51.323467
2022-08-28T00:56:13.125Z,51.323479
2022-08-28T00:57:11.487Z,51.323494
2022-08-28T00:58:11.635Z,51.323486
2022-08-28T00:59:11.447Z,51.323502
2022-08-28T01:00:11.422Z,51.323471
2022-08-28T01:01:11.399Z,51.323467
2022-08-28T01:02:11.381Z,51.323486
2022-08-28T01:03:11.391Z,51.323444
2022-08-28T01:04:11.334Z,51.323460
2022-08-28T01:05:11.308Z,51.323437
2022-08-28T01:06:11.289Z,51.323433
2022-08-28T01:07:11.269Z,51.323444
2022-08-28T01:08:11.404Z,51.323429
2022-08-28T01:09:11.221Z,51.323433
2022-08-28T01:10:11.199Z,51.323471
2022-08-28T01:11:11.176Z,51.323444
2022-08-28T01:12:11.154Z,51.323410
2022-08-28T01:13:11.131Z,51.323460
2022-08-28T01:14:11.114Z,51.323475
2022-08-28T01:15:11.092Z,51.323479
2022-08-28T01:16:11.149Z,51.323490
2022-08-28T01:17:11.050Z,51.323448
2022-08-28T01:18:11.190Z,51.323471
2022-08-28T01:19:11.005Z,51.323414
2022-08-28T01:20:10.986Z,51.323448
2022-08-28T01:21:10.963Z,51.323479
2022-08-28T01:22:11.946Z,51.323452
2022-08-28T01:23:10.942Z,51.323437
2022-08-28T01:24:10.908Z,51.323421
2022-08-28T01:25:10.875Z,51.323471
2022-08-28T01:26:11.816Z,51.323509
2022-08-28T01:27:10.831Z,51.323441
2022-08-28T01:28:10.887Z,51.323444
2022-08-28T01:29:10.788Z,51.323414
2022-08-28T01:30:10.768Z,51.323406
2022-08-28T01:31:10.782Z,51.323448
2022-08-28T01:32:10.725Z,51.323391
2022-08-28T01:33:10.700Z,51.323429
2022-08-28T01:34:10.676Z,51.323448
2022-08-28T01:35:10.657Z,51.323395
2022-08-28T01:36:10.637Z,51.323437
2022-08-28T01:37:10.618Z,51.323418
2022-08-28T01:38:10.672Z,51.323406
2022-08-28T01:39:10.577Z,51.323399
2022-08-28T01:40:10.589Z,51.323421
2022-08-28T01:41:10.531Z,51.323429
2022-08-28T01:42:10.511Z,51.323425
2022-08-28T01:43:10.484Z,51.323437
2022-08-28T01:44:10.471Z,51.323402
2022-08-28T01:45:10.453Z,51.323433
2022-08-28T01:46:10.474Z,51.323391
2022-08-28T01:47:10.407Z,51.323410
2022-08-28T01:48:10.399Z,51.323399
2022-08-28T01:49:10.363Z,51.323414
2022-08-28T01:50:10.338Z,51.323429
2022-08-28T01:51:10.324Z,51.323425
2022-08-28T01:52:10.296Z,51.323437
2022-08-28T01:53:12.462Z,51.323425
2022-08-28T01:54:10.260Z,51.323437
2022-08-28T01:55:10.231Z,51.323429
2022-08-28T01:56:10.204Z,51.323441
2022-08-28T01:57:10.190Z,51.323437
2022-08-28T01:58:10.279Z,51.323414
2022-08-28T01:59:10.137Z,51.323372
2022-08-28T02:00:10.114Z,51.323402
2022-08-28T02:01:10.161Z,51.323414
2022-08-28T02:02:10.126Z,51.323425
2022-08-28T02:03:10.050Z,51.323395
2022-08-28T02:04:10.113Z,51.323418
2022-08-28T02:05:10.005Z,51.323429
2022-08-28T02:06:09.978Z,51.323460
2022-08-28T02:07:09.957Z,51.323444
2022-08-28T02:08:10.048Z,51.323429
2022-08-28T02:09:13.530Z,51.323425
2022-08-28T02:10:09.890Z,51.323425
2022-08-28T02:11:09.872Z,51.323425
2022-08-28T02:12:09.849Z,51.323425
2022-08-28T02:13:09.844Z,51.323437
2022-08-28T02:14:09.802Z,51.323414
2022-08-28T02:15:09.784Z,51.323444
2022-08-28T02:16:09.886Z,51.323437
2022-08-28T02:17:09.738Z,51.323421
2022-08-28T02:18:09.833Z,51.323429
2022-08-28T02:19:09.692Z,51.323433
2022-08-28T02:20:09.670Z,51.323421
2022-08-28T02:21:09.649Z,51.323402
2022-08-28T02:22:09.625Z,51.323406
2022-08-28T02:23:09.603Z,51.323402
2022-08-28T02:24:09.578Z,51.323414
2022-08-28T02:25:09.555Z,51.323418
2022-08-28T02:26:09.544Z,51.323433
2022-08-28T02:27:09.511Z,51.323425
2022-08-28T02:28:09.562Z,51.323467
2022-08-28T02:29:09.466Z,51.323437
2022-08-28T02:30:09.443Z,51.323425
2022-08-28T02:31:09.525Z,51.323414
2022-08-28T02:32:09.402Z,51.323414
2022-08-28T02:33:09.386Z,51.323406
2022-08-28T02:34:09.360Z,51.323395
2022-08-28T02:35:10.099Z,51.323425
2022-08-28T02:36:09.313Z,51.323433
2022-08-28T02:37:09.287Z,51.323437
2022-08-28T02:38:10.267Z,51.323418
2022-08-28T02:39:09.245Z,51.323410
2022-08-28T02:40:09.246Z,51.323452
2022-08-28T02:41:09.200Z,51.323433
2022-08-28T02:42:09.179Z,51.323421
2022-08-28T02:43:09.157Z,51.323414
2022-08-28T02:44:09.130Z,51.323425
2022-08-28T02:45:09.110Z,51.323421
2022-08-28T02:46:09.132Z,51.323402
2022-08-28T02:47:09.067Z,51.323410
2022-08-28T02:48:14.670Z,51.323406
2022-08-28T02:49:10.017Z,51.323418
2022-08-28T02:50:08.996Z,51.323433
2022-08-28T02:51:08.972Z,51.323418
2022-08-28T02:52:08.952Z,51.323425
2022-08-28T02:53:08.928Z,51.323429
2022-08-28T02:54:08.905Z,51.323418
2022-08-28T02:55:08.886Z,51.323406
2022-08-28T02:56:08.861Z,51.323395
2022-08-28T02:57:08.835Z,51.323383
2022-08-28T02:58:08.860Z,51.323414
2022-08-28T02:59:08.794Z,51.323429
2022-08-28T03:00:08.772Z,51.323433
2022-08-28T03:01:08.792Z,51.323425
2022-08-28T03:02:08.813Z,51.323395
2022-08-28T03:03:08.704Z,51.323410
2022-08-28T03:04:08.695Z,51.323387
2022-08-28T03:05:08.663Z,51.323395
2022-08-28T03:06:08.641Z,51.323395
2022-08-28T03:07:08.621Z,51.323410
2022-08-28T03:08:08.599Z,51.323414
2022-08-28T03:09:08.574Z,51.323410
2022-08-28T03:10:08.553Z,51.323406
2022-08-28T03:11:08.529Z,51.323421
2022-08-28T03:12:08.506Z,51.323429
2022-08-28T03:13:08.484Z,51.323433
2022-08-28T03:14:08.462Z,51.323418
2022-08-28T03:15:08.439Z,51.323418
2022-08-28T03:16:08.416Z,51.323418
2022-08-28T03:17:08.392Z,51.323410
2022-08-28T03:18:11.341Z,51.323402
2022-08-28T03:19:08.345Z,51.323414
2022-08-28T03:20:08.331Z,51.323418
2022-08-28T03:21:08.299Z,51.323406
2022-08-28T03:22:08.281Z,51.323391
2022-08-28T03:23:08.257Z,51.323387
2022-08-28T03:24:08.234Z,51.323395
2022-08-28T03:25:08.214Z,51.323418
2022-08-28T03:26:08.189Z,51.323402
2022-08-28T03:27:08.167Z,51.323391
2022-08-28T03:28:08.145Z,51.323395
2022-08-28T03:29:08.126Z,51.323402
2022-08-28T03:30:08.105Z,51.323414
2022-08-28T03:31:08.160Z,51.323410
2022-08-28T03:32:08.051Z,51.323414
2022-08-28T03:33:08.033Z,51.323406
2022-08-28T03:34:08.025Z,51.323414
2022-08-28T03:35:07.987Z,51.323437
2022-08-28T03:36:07.960Z,51.323421
2022-08-28T03:37:07.944Z,51.323406
2022-08-28T03:38:07.919Z,51.323402
2022-08-28T03:39:07.899Z,51.323402
2022-08-28T03:40:07.926Z,51.323418
2022-08-28T03:41:07.855Z,51.323406
2022-08-28T03:42:07.832Z,51.323402
2022-08-28T03:43:07.806Z,51.323406
2022-08-28T03:44:07.782Z,51.323402
2022-08-28T03:45:07.763Z,51.323402
2022-08-28T03:46:07.786Z,51.323395
2022-08-28T03:47:07.721Z,51.323387
2022-08-28T03:48:07.695Z,51.323383
2022-08-28T03:49:07.673Z,51.323383
2022-08-28T03:50:07.651Z,51.323406
2022-08-28T03:51:07.625Z,51.323414
2022-08-28T03:52:07.607Z,51.323383
2022-08-28T03:53:07.581Z,51.323414
2022-08-28T03:54:07.560Z,51.323387
2022-08-28T03:55:07.536Z,51.323402
2022-08-28T03:56:07.515Z,51.323387
2022-08-28T03:57:07.491Z,51.323406
2022-08-28T03:58:07.470Z,51.323399
2022-08-28T03:59:07.446Z,51.323399
2022-08-28T04:00:07.428Z,51.323406
2022-08-28T04:01:07.456Z,51.323414
2022-08-28T04:02:07.389Z,51.323410
2022-08-28T04:03:07.417Z,51.323425
2022-08-28T04:04:07.344Z,51.323418
2022-08-28T04:05:07.319Z,51.323421
2022-08-28T04:06:07.305Z,51.323425
2022-08-28T04:07:07.281Z,51.323421
2022-08-28T04:08:07.268Z,51.323406
2022-08-28T04:09:07.247Z,51.323376
2022-08-28T04:10:07.217Z,51.323410
2022-08-28T04:11:07.195Z,51.323406
2022-08-28T04:12:07.170Z,51.323391
2022-08-28T04:13:07.151Z,51.323425
2022-08-28T04:14:07.131Z,51.323425
2022-08-28T04:15:07.379Z,51.323418
2022-08-28T04:16:08.096Z,51.323414
2022-08-28T04:17:07.137Z,51.323406
2022-08-28T04:18:07.043Z,51.323406
2022-08-28T04:19:07.021Z,51.323421
2022-08-28T04:20:06.996Z,51.323410
2022-08-28T04:21:06.974Z,51.323376
2022-08-28T04:22:06.950Z,51.323372
2022-08-28T04:23:06.930Z,51.323395
2022-08-28T04:24:09.615Z,51.323425
2022-08-28T04:25:07.882Z,51.323425
2022-08-28T04:26:06.887Z,51.323425
2022-08-28T04:27:06.842Z,51.323429
2022-08-28T04:28:06.837Z,51.323437
2022-08-28T04:29:06.788Z,51.323391
2022-08-28T04:30:07.778Z,51.323372
2022-08-28T04:31:06.751Z,51.323395
2022-08-28T04:32:06.742Z,51.323448
2022-08-28T04:33:06.710Z,51.323395
2022-08-28T04:34:06.688Z,51.323376
2022-08-28T04:35:06.666Z,51.323448
2022-08-28T04:36:06.647Z,51.323387
2022-08-28T04:37:06.638Z,51.323391
2022-08-28T04:38:06.634Z,51.323387
2022-08-28T04:39:06.577Z,51.323460
2022-08-28T04:40:06.599Z,51.323513
2022-08-28T04:41:06.532Z,51.323463
2022-08-28T04:42:06.521Z,51.323444
2022-08-28T04:43:06.493Z,51.323463
2022-08-28T04:44:06.470Z,51.323395
2022-08-28T04:45:06.468Z,51.323353
2022-08-28T04:46:06.506Z,51.323387
2022-08-28T04:47:06.397Z,51.323402
2022-08-28T04:48:13.013Z,51.323395
2022-08-28T04:49:07.365Z,51.323410
2022-08-28T04:50:06.350Z,51.323425
2022-08-28T04:51:06.325Z,51.323463
2022-08-28T04:52:06.302Z,51.323429
2022-08-28T04:53:06.287Z,51.323460
2022-08-28T04:54:06.261Z,51.323425
2022-08-28T04:55:06.239Z,51.323387
2022-08-28T04:56:06.215Z,51.323395
2022-08-28T04:57:06.622Z,51.323414
2022-08-28T04:58:06.259Z,51.323425
2022-08-28T04:59:06.156Z,51.323406
2022-08-28T05:00:06.129Z,51.323421
2022-08-28T05:01:06.162Z,51.323429
2022-08-28T05:02:06.111Z,51.323433
2022-08-28T05:03:06.065Z,51.323414
2022-08-28T05:04:06.047Z,51.323418
2022-08-28T05:05:06.027Z,51.323433
2022-08-28T05:06:06.006Z,51.323437
2022-08-28T05:07:05.985Z,51.323475
2022-08-28T05:08:05.962Z,51.323425
2022-08-28T05:09:05.948Z,51.323444
2022-08-28T05:10:05.923Z,51.323425
2022-08-28T05:11:05.901Z,51.323429
2022-08-28T05:12:05.879Z,51.323425
2022-08-28T05:13:05.857Z,51.323364
2022-08-28T05:14:05.837Z,51.323399
2022-08-28T05:15:05.815Z,51.323391
2022-08-28T05:16:05.841Z,51.323410
2022-08-28T05:17:05.776Z,51.323425
2022-08-28T05:18:05.821Z,51.323448
2022-08-28T05:19:05.737Z,51.323456
2022-08-28T05:20:05.712Z,51.323399
2022-08-28T05:21:05.687Z,51.323406
2022-08-28T05:22:05.665Z,51.323410
2022-08-28T05:23:05.642Z,51.323406
2022-08-28T05:24:05.621Z,51.323433
2022-08-28T05:25:05.604Z,51.323395
2022-08-28T05:26:05.582Z,51.323395
2022-08-28T05:27:05.570Z,51.323414
2022-08-28T05:28:05.539Z,51.323391
2022-08-28T05:29:05.522Z,51.323399
2022-08-28T05:30:05.496Z,51.323395
2022-08-28T05:31:05.474Z,51.323414
2022-08-28T05:32:05.455Z,51.323406
2022-08-28T05:33:05.432Z,51.323414
2022-08-28T05:34:05.411Z,51.323402
2022-08-28T05:35:05.386Z,51.323429
2022-08-28T05:36:05.368Z,51.323429
2022-08-28T05:37:05.344Z,51.323475
2022-08-28T05:38:05.439Z,51.323395
2022-08-28T05:39:05.306Z,51.323421
2022-08-28T05:40:05.331Z,51.323406
2022-08-28T05:41:05.261Z,51.323437
2022-08-28T05:42:05.242Z,51.323410
2022-08-28T05:43:05.222Z,51.323444
2022-08-28T05:44:05.205Z,51.323452
2022-08-28T05:45:05.181Z,51.323463
2022-08-28T05:46:05.889Z,51.323463
2022-08-28T05:47:05.137Z,51.323421
2022-08-28T05:48:05.118Z,51.323395
2022-08-28T05:49:09.602Z,51.323410
2022-08-28T05:50:07.071Z,51.323425
2022-08-28T05:51:05.054Z,51.323452
2022-08-28T05:52:05.032Z,51.323444
2022-08-28T05:53:05.009Z,51.323444
2022-08-28T05:54:04.984Z,51.323425
2022-08-28T05:55:04.962Z,51.323479
2022-08-28T05:56:04.942Z,51.323444
2022-08-28T05:57:04.923Z,51.323444
2022-08-28T05:58:04.898Z,51.323395
2022-08-28T05:59:04.876Z,51.323406
2022-08-28T06:00:04.857Z,51.323444
2022-08-28T06:01:04.833Z,51.323425
2022-08-28T06:02:04.877Z,51.323399
2022-08-28T06:03:04.789Z,51.323421
2022-08-28T06:04:04.828Z,51.323406
2022-08-28T06:05:04.740Z,51.323414
2022-08-28T06:06:04.718Z,51.323452
2022-08-28T06:07:04.695Z,51.323402
2022-08-28T06:08:04.675Z,51.323460
2022-08-28T06:09:04.649Z,51.323460
2022-08-28T06:10:04.631Z,51.323406
2022-08-28T06:11:04.609Z,51.323437
2022-08-28T06:12:04.584Z,51.323437
2022-08-28T06:13:04.565Z,51.323383
2022-08-28T06:14:04.544Z,51.323395
2022-08-28T06:15:04.520Z,51.323402
2022-08-28T06:16:04.537Z,51.323410
2022-08-28T06:17:04.477Z,51.323414
2022-08-28T06:18:04.455Z,51.323429
2022-08-28T06:19:04.434Z,51.323467
2022-08-28T06:20:04.412Z,51.323479
2022-08-28T06:21:04.395Z,51.323437
2022-08-28T06:22:06.974Z,51.323452
2022-08-28T06:23:04.353Z,51.323421
2022-08-28T06:24:04.332Z,51.323402
2022-08-28T06:25:07.789Z,51.323414
2022-08-28T06:26:05.287Z,51.323364
2022-08-28T06:27:04.268Z,51.323349
2022-08-28T06:28:04.251Z,51.323421
2022-08-28T06:29:04.229Z,51.323441
2022-08-28T06:30:04.209Z,51.323471
2022-08-28T06:31:24.044Z,51.323498
2022-08-28T06:32:06.215Z,51.323452
2022-08-28T06:33:04.155Z,51.323387
2022-08-28T06:34:04.136Z,51.323372
2022-08-28T06:35:04.117Z,51.323475
2022-08-28T06:36:04.101Z,51.323490
2022-08-28T06:37:04.076Z,51.323452
2022-08-28T06:38:04.065Z,51.323429
2022-08-28T06:39:04.042Z,51.323441
2022-08-28T06:40:04.053Z,51.323448
2022-08-28T06:41:04.002Z,51.323467
2022-08-28T06:42:03.990Z,51.323433
2022-08-28T06:43:03.967Z,51.323444
2022-08-28T06:44:03.946Z,51.323471
2022-08-28T06:45:03.933Z,51.323448
2022-08-28T06:46:03.957Z,51.323421
2022-08-28T06:47:03.893Z,51.323418
2022-08-28T06:48:03.887Z,51.323414
2022-08-28T06:49:03.889Z,51.323441
2022-08-28T06:50:03.841Z,51.323406
2022-08-28T06:51:03.833Z,51.323448
2022-08-28T06:52:03.810Z,51.323448
2022-08-28T06:53:03.790Z,51.323429
2022-08-28T06:54:03.777Z,51.323410
2022-08-28T06:55:03.752Z,51.323433
2022-08-28T06:56:03.735Z,51.323418
2022-08-28T06:57:03.714Z,51.323433
2022-08-28T06:58:03.714Z,51.323406
2022-08-28T06:59:03.676Z,51.323433
2022-08-28T07:00:03.660Z,51.323402
2022-08-28T07:01:03.783Z,51.323441
2022-08-28T07:02:03.800Z,51.323448
2022-08-28T07:03:03.655Z,51.323425
2022-08-28T07:04:03.601Z,51.323399
2022-08-28T07:05:03.608Z,51.323421
2022-08-28T07:06:03.550Z,51.323414
2022-08-28T07:07:03.567Z,51.323418
2022-08-28T07:08:03.517Z,51.323425
2022-08-28T07:09:04.363Z,51.323448
2022-08-28T07:10:03.484Z,51.323452
2022-08-28T07:11:03.466Z,51.323421
2022-08-28T07:12:03.471Z,51.323414
2022-08-28T07:13:03.435Z,51.323421
2022-08-28T07:14:03.418Z,51.323383
2022-08-28T07:15:03.393Z,51.323395
2022-08-28T07:16:03.398Z,51.323433
2022-08-28T07:17:03.369Z,51.323414
2022-08-28T07:18:03.346Z,51.323410
2022-08-28T07:19:03.333Z,51.323410
2022-08-28T07:20:03.308Z,51.323421
2022-08-28T07:21:04.314Z,51.323425
2022-08-28T07:22:03.277Z,51.323429
2022-08-28T07:23:03.257Z,51.323387
2022-08-28T07:24:03.241Z,51.323402
2022-08-28T07:25:03.221Z,51.323402
2022-08-28T07:26:03.209Z,51.323380
2022-08-28T07:27:03.194Z,51.323391
2022-08-28T07:28:03.181Z,51.323414
2022-08-28T07:29:10.205Z,51.323410
2022-08-28T07:30:04.208Z,51.323399
2022-08-28T07:31:03.175Z,51.323380
2022-08-28T07:32:03.100Z,51.323395
2022-08-28T07:33:03.081Z,51.323402
2022-08-28T07:34:03.064Z,51.323418
2022-08-28T07:35:03.047Z,51.323421
2022-08-28T07:36:03.036Z,51.323421
2022-08-28T07:37:03.013Z,51.323421
2022-08-28T07:38:02.996Z,51.323395
2022-08-28T07:39:02.975Z,51.323380
2022-08-28T07:40:03.005Z,51.323414
2022-08-28T07:41:02.940Z,51.323414
2022-08-28T07:42:02.922Z,51.323429
2022-08-28T07:43:02.905Z,51.323391
2022-08-28T07:44:02.884Z,51.323429
2022-08-28T07:45:02.869Z,51.323418
2022-08-28T07:46:02.895Z,51.323395
2022-08-28T07:47:02.828Z,51.323395
2022-08-28T07:48:02.812Z,51.323414
2022-08-28T07:49:02.788Z,51.323414
2022-08-28T07:50:02.773Z,51.323402
2022-08-28T07:51:02.762Z,51.323391
2022-08-28T07:52:02.746Z,51.323410
2022-08-28T07:53:02.723Z,51.323421
2022-08-28T07:54:02.702Z,51.323414
2022-08-28T07:55:02.680Z,51.323418
2022-08-28T07:56:02.665Z,51.323425
2022-08-28T07:57:02.643Z,51.323429
2022-08-28T07:58:02.629Z,51.323433
2022-08-28T07:59:02.614Z,51.323421
2022-08-28T08:00:02.589Z,51.323421
2022-08-28T08:01:02.631Z,51.323395
2022-08-28T08:02:02.554Z,51.323418
2022-08-28T08:03:02.543Z,51.323418
2022-08-28T08:04:02.552Z,51.323410
2022-08-28T08:05:02.499Z,51.323410
2022-08-28T08:06:02.477Z,51.323414
2022-08-28T08:07:02.470Z,51.323425
2022-08-28T08:08:02.448Z,51.323441
2022-08-28T08:09:02.427Z,51.323441
2022-08-28T08:10:02.410Z,51.323437
2022-08-28T08:11:02.391Z,51.323441
2022-08-28T08:12:02.370Z,51.323441
2022-08-28T08:13:02.351Z,51.323410
2022-08-28T08:14:03.348Z,51.323433
2022-08-28T08:15:02.319Z,51.323433
2022-08-28T08:16:02.341Z,51.323418
2022-08-28T08:17:02.284Z,51.323402
2022-08-28T08:18:02.261Z,51.323437
2022-08-28T08:19:02.250Z,51.323471
2022-08-28T08:20:02.225Z,51.323471
2022-08-28T08:21:02.208Z,51.323429
2022-08-28T08:22:02.186Z,51.323418
2022-08-28T08:23:02.173Z,51.323395
2022-08-28T08:24:02.149Z,51.323444
2022-08-28T08:25:03.133Z,51.323421
2022-08-28T08:26:02.116Z,51.323441
2022-08-28T08:27:02.101Z,51.323429
2022-08-28T08:28:02.084Z,51.323425
2022-08-28T08:29:02.067Z,51.323437
2022-08-28T08:30:02.049Z,51.323441
2022-08-28T08:31:02.053Z,51.323441
2022-08-28T08:32:02.006Z,51.323429
2022-08-28T08:33:01.995Z,51.323444
2022-08-28T08:34:02.740Z,51.323444
2022-08-28T08:35:01.959Z,51.323433
2022-08-28T08:36:01.941Z,51.323414
2022-08-28T08:37:01.916Z,51.323418
2022-08-28T08:38:02.952Z,51.323414
2022-08-28T08:39:06.449Z,51.323437
2022-08-28T08:40:03.535Z,51.323444
2022-08-28T08:41:01.851Z,51.323452
2022-08-28T08:42:01.832Z,51.323467
2022-08-28T08:43:01.814Z,51.323452
2022-08-28T08:44:01.797Z,51.323444
2022-08-28T08:45:01.778Z,51.323425
2022-08-28T08:46:01.825Z,51.323425
2022-08-28T08:47:02.746Z,51.323418
2022-08-28T08:48:02.723Z,51.323429
2022-08-28T08:49:01.715Z,51.323425
2022-08-28T08:50:01.689Z,51.323444
2022-08-28T08:51:01.671Z,51.323441
2022-08-28T08:52:01.646Z,51.323418
2022-08-28T08:53:01.635Z,51.323448
2022-08-28T08:54:01.615Z,51.323452
2022-08-28T08:55:01.597Z,51.323444
2022-08-28T08:56:01.579Z,51.323448
2022-08-28T08:57:01.563Z,51.323425
2022-08-28T08:58:01.559Z,51.323441
2022-08-28T08:59:01.524Z,51.323429
2022-08-28T09:00:01.509Z,51.323406
2022-08-28T09:01:01.526Z,51.323372
2022-08-28T09:02:01.468Z,51.323353
2022-08-28T09:03:02.501Z,51.323341
2022-08-28T09:04:01.432Z,51.323334
2022-08-28T09:05:02.200Z,51.323471
2022-08-28T09:06:01.410Z,51.323475
2022-08-28T09:07:02.237Z,51.323463
2022-08-28T09:08:01.374Z,51.323433
2022-08-28T09:09:01.341Z,51.323437
2022-08-28T09:10:01.336Z,51.323345
2022-08-28T09:11:01.308Z,51.323395
2022-08-28T09:12:01.812Z,51.323448
2022-08-28T09:13:01.267Z,51.323448
2022-08-28T09:14:01.250Z,51.323360
2022-08-28T09:15:01.737Z,51.323257
2022-08-28T09:16:01.264Z,51.323269
2022-08-28T09:17:01.195Z,51.323318
2022-08-28T09:18:02.177Z,51.323421
2022-08-28T09:19:01.163Z,51.323429
2022-08-28T09:20:01.145Z,51.323402
2022-08-28T09:21:01.129Z,51.323441
2022-08-28T09:22:01.112Z,51.323475
2022-08-28T09:23:02.077Z,51.323452
2022-08-28T09:24:02.074Z,51.323433
2022-08-28T09:25:02.064Z,51.323410
2022-08-28T09:26:01.750Z,51.323433
2022-08-28T09:27:01.026Z,51.323395
2022-08-28T09:28:01.005Z,51.323471
2022-08-28T09:29:00.981Z,51.323502
2022-08-28T09:30:07.216Z,51.323528
2022-08-28T09:31:02.009Z,51.323460
2022-08-28T09:32:00.925Z,51.323471
2022-08-28T09:33:00.918Z,51.323441
2022-08-28T09:34:00.891Z,51.323421
2022-08-28T09:35:00.875Z,51.323418
2022-08-28T09:36:00.862Z,51.323460
2022-08-28T09:37:01.346Z,51.323444
2022-08-28T09:38:00.821Z,51.323444
2022-08-28T09:39:00.807Z,51.323429
2022-08-28T09:40:00.852Z,51.323437
2022-08-28T09:41:00.766Z,51.323444
2022-08-28T09:42:00.746Z,51.323444
2022-08-28T09:43:00.730Z,51.323444
2022-08-28T09:44:00.711Z,51.323418
2022-08-28T09:45:00.688Z,51.323406
2022-08-28T09:46:00.711Z,51.323463
2022-08-28T09:47:00.655Z,51.323483
2022-08-28T09:48:01.236Z,51.323467
2022-08-28T09:49:00.616Z,51.323456
2022-08-28T09:50:00.609Z,51.323410
2022-08-28T09:51:00.581Z,51.323467
2022-08-28T09:52:00.569Z,51.323460
2022-08-28T09:53:00.551Z,51.323456
2022-08-28T09:54:00.529Z,51.323475
2022-08-28T09:55:00.510Z,51.323456
2022-08-28T09:56:00.558Z,51.323421
2022-08-28T09:57:01.344Z,51.323429
2022-08-28T09:58:00.459Z,51.323421
2022-08-28T09:59:01.231Z,51.323460
2022-08-28T10:00:00.424Z,51.323444
2022-08-28T10:01:00.416Z,51.323425
2022-08-28T10:02:00.480Z,51.323441
2022-08-28T10:03:03.281Z,51.323425
2022-08-28T10:04:01.403Z,51.323444
2022-08-28T10:05:00.336Z,51.323444
2022-08-28T10:06:00.321Z,51.323444
2022-08-28T10:07:00.303Z,51.323448
2022-08-28T10:08:00.282Z,51.323433
2022-08-28T10:09:00.261Z,51.323437
2022-08-28T10:10:00.248Z,51.323460
2022-08-28T10:11:00.236Z,51.323467
2022-08-28T10:12:00.206Z,51.323441
2022-08-28T10:13:00.187Z,51.323437
2022-08-28T10:14:00.171Z,51.323429
2022-08-28T10:15:00.149Z,51.323399
2022-08-28T10:16:00.177Z,51.323399
2022-08-28T10:17:01.118Z,51.323418
2022-08-28T10:18:00.111Z,51.323433
2022-08-28T10:19:00.086Z,51.323429
2022-08-28T10:20:00.067Z,51.323448
2022-08-28T10:21:00.050Z,51.323421
2022-08-28T10:22:00.031Z,51.323425
2022-08-28T10:23:00.007Z,51.323429
2022-08-28T10:23:59.987Z,51.323414
2022-08-28T10:24:59.971Z,51.323425
2022-08-28T10:25:59.957Z,51.323429
2022-08-28T10:26:59.943Z,51.323437
2022-08-28T10:27:59.917Z,51.323421
2022-08-28T10:28:59.908Z,51.323425
2022-08-28T10:30:04.377Z,51.323421
2022-08-28T10:31:01.932Z,51.323425
2022-08-28T10:31:59.851Z,51.323437
2022-08-28T10:32:59.870Z,51.323441
2022-08-28T10:33:59.814Z,51.323429
2022-08-28T10:34:59.797Z,51.323429
2022-08-28T10:35:59.788Z,51.323433
2022-08-28T10:37:00.764Z,51.323437
2022-08-28T10:37:59.748Z,51.323441
2022-08-28T10:38:59.727Z,51.323429
2022-08-28T10:39:59.754Z,51.323421
2022-08-28T10:41:00.341Z,51.323444
2022-08-28T10:41:59.680Z,51.323448
2022-08-28T10:42:59.657Z,51.323456
2022-08-28T10:43:59.640Z,51.323444
2022-08-28T10:44:59.653Z,51.323437
2022-08-28T10:46:00.640Z,51.323437
2022-08-28T10:46:59.586Z,51.323421
2022-08-28T10:47:59.569Z,51.323421
2022-08-28T10:48:59.554Z,51.323437
2022-08-28T10:49:59.537Z,51.323444
2022-08-28T10:50:59.516Z,51.323418
2022-08-28T10:52:00.347Z,51.323425
2022-08-28T10:52:59.486Z,51.323425
2022-08-28T10:54:00.338Z,51.323414
2022-08-28T10:54:59.441Z,51.323418
2022-08-28T10:55:59.413Z,51.323421
2022-08-28T10:56:59.405Z,51.323414
2022-08-28T10:57:59.384Z,51.323421
2022-08-28T10:58:59.369Z,51.323437
2022-08-28T10:59:59.362Z,51.323441
2022-08-28T11:00:59.390Z,51.323437
2022-08-28T11:01:59.312Z,51.323433
2022-08-28T11:02:59.341Z,51.323421
2022-08-28T11:04:00.270Z,51.323429
2022-08-28T11:04:59.257Z,51.323425
2022-08-28T11:05:59.237Z,51.323425
2022-08-28T11:06:59.215Z,51.323437
2022-08-28T11:07:59.215Z,51.323429
2022-08-28T11:08:59.179Z,51.323425
2022-08-28T11:09:59.175Z,51.323429
2022-08-28T11:10:59.140Z,51.323425
2022-08-28T11:12:01.987Z,51.323425
2022-08-28T11:12:59.104Z,51.323425
2022-08-28T11:13:59.092Z,51.323418
2022-08-28T11:14:59.068Z,51.323414
2022-08-28T11:15:59.050Z,51.323395
2022-08-28T11:16:59.108Z,51.323414
2022-08-28T11:17:59.012Z,51.323425
2022-08-28T11:18:59.001Z,51.323441
2022-08-28T11:19:58.978Z,51.323433
2022-08-28T11:20:58.958Z,51.323410
2022-08-28T11:21:58.942Z,51.323414
2022-08-28T11:22:58.929Z,51.323425
2022-08-28T11:23:58.913Z,51.323429